sensor_id;sensor_type;location;lat;lon;timestamp;P1;durP1;ratioP1;P2;durP2;ratioP2
16288;SDS011;26089;43.538;5.250;2022-10-16T00:00:48;5.37;;;4.30;;
16288;SDS011;26089;43.538;5.250;2022-10-16T00:03:15;4.33;;;4.00;;
16288;SDS011;26089;43.538;5.250;2022-10-16T00:05:42;5.30;;;4.80;;
16288;SDS011;26089;43.538;5.250;2022-10-16T00:08:11;6.77;;;5.10;;
16288;SDS011;26089;43.538;5.250;2022-10-16T00:10:38;5.53;;;4.80;;
16288;SDS011;26089;43.538;5.250;2022-10-16T00:13:07;9.43;;;5.70;;
16288;SDS011;26089;43.538;5.250;2022-10-16T00:15:34;5.87;;;5.00;;
16288;SDS011;26089;43.538;5.250;2022-10-16T00:18:04;6.27;;;5.10;;
16288;SDS011;26089;43.538;5.250;2022-10-16T00:20:33;6.53;;;5.40;;
16288;SDS011;26089;43.538;5.250;2022-10-16T00:23:01;5.93;;;5.20;;
16288;SDS011;26089;43.538;5.250;2022-10-16T00:25:29;5.93;;;5.33;;
16288;SDS011;26089;43.538;5.250;2022-10-16T00:27:58;5.77;;;5.17;;
16288;SDS011;26089;43.538;5.250;2022-10-16T00:30:26;7.13;;;4.87;;
16288;SDS011;26089;43.538;5.250;2022-10-16T00:32:54;6.33;;;5.60;;
16288;SDS011;26089;43.538;5.250;2022-10-16T00:35:21;6.10;;;5.50;;
16288;SDS011;26089;43.538;5.250;2022-10-16T00:37:48;6.90;;;5.47;;
16288;SDS011;26089;43.538;5.250;2022-10-16T00:40:15;5.33;;;4.90;;
16288;SDS011;26089;43.538;5.250;2022-10-16T00:42:42;6.33;;;5.17;;
16288;SDS011;26089;43.538;5.250;2022-10-16T00:45:10;6.07;;;5.57;;
16288;SDS011;26089;43.538;5.250;2022-10-16T00:47:39;5.63;;;4.97;;
16288;SDS011;26089;43.538;5.250;2022-10-16T00:50:11;5.63;;;5.03;;
16288;SDS011;26089;43.538;5.250;2022-10-16T00:52:46;5.57;;;5.10;;
16288;SDS011;26089;43.538;5.250;2022-10-16T00:55:14;10.27;;;5.77;;
16288;SDS011;26089;43.538;5.250;2022-10-16T00:57:42;7.00;;;5.63;;
16288;SDS011;26089;43.538;5.250;2022-10-16T01:00:15;7.07;;;4.70;;
16288;SDS011;26089;43.538;5.250;2022-10-16T01:02:51;7.13;;;5.00;;
16288;SDS011;26089;43.538;5.250;2022-10-16T01:05:18;6.03;;;5.13;;
16288;SDS011;26089;43.538;5.250;2022-10-16T01:07:48;5.83;;;4.67;;
16288;SDS011;26089;43.538;5.250;2022-10-16T01:10:24;7.03;;;4.73;;
16288;SDS011;26089;43.538;5.250;2022-10-16T01:12:58;5.10;;;4.70;;
16288;SDS011;26089;43.538;5.250;2022-10-16T01:15:29;6.47;;;5.30;;
16288;SDS011;26089;43.538;5.250;2022-10-16T01:18:03;4.60;;;4.20;;
16288;SDS011;26089;43.538;5.250;2022-10-16T01:20:35;4.73;;;4.17;;
16288;SDS011;26089;43.538;5.250;2022-10-16T01:23:10;5.43;;;4.67;;
16288;SDS011;26089;43.538;5.250;2022-10-16T01:28:49;6.27;;;4.87;;
16288;SDS011;26089;43.538;5.250;2022-10-16T01:31:22;6.97;;;4.40;;
16288;SDS011;26089;43.538;5.250;2022-10-16T01:33:56;5.70;;;4.83;;
16288;SDS011;26089;43.538;5.250;2022-10-16T01:36:27;5.37;;;4.87;;
16288;SDS011;26089;43.538;5.250;2022-10-16T01:39:00;7.97;;;4.97;;
16288;SDS011;26089;43.538;5.250;2022-10-16T01:41:30;7.20;;;5.53;;
16288;SDS011;26089;43.538;5.250;2022-10-16T01:44:03;5.70;;;5.10;;
16288;SDS011;26089;43.538;5.250;2022-10-16T01:46:35;5.93;;;5.33;;
16288;SDS011;26089;43.538;5.250;2022-10-16T01:49:05;8.00;;;5.87;;
16288;SDS011;26089;43.538;5.250;2022-10-16T01:51:35;6.17;;;5.50;;
16288;SDS011;26089;43.538;5.250;2022-10-16T01:54:03;6.77;;;5.27;;
16288;SDS011;26089;43.538;5.250;2022-10-16T01:56:33;5.33;;;4.83;;
16288;SDS011;26089;43.538;5.250;2022-10-16T01:59:02;6.40;;;5.33;;
16288;SDS011;26089;43.538;5.250;2022-10-16T02:01:36;7.23;;;5.00;;
16288;SDS011;26089;43.538;5.250;2022-10-16T02:04:08;6.57;;;5.47;;
16288;SDS011;26089;43.538;5.250;2022-10-16T02:06:38;8.00;;;5.20;;
16288;SDS011;26089;43.538;5.250;2022-10-16T02:09:05;6.57;;;5.27;;
16288;SDS011;26089;43.538;5.250;2022-10-16T02:11:32;5.73;;;5.23;;
16288;SDS011;26089;43.538;5.250;2022-10-16T02:14:00;5.97;;;5.47;;
16288;SDS011;26089;43.538;5.250;2022-10-16T02:16:35;7.63;;;5.47;;
16288;SDS011;26089;43.538;5.250;2022-10-16T02:19:05;6.23;;;5.60;;
16288;SDS011;26089;43.538;5.250;2022-10-16T02:21:34;8.10;;;5.80;;
16288;SDS011;26089;43.538;5.250;2022-10-16T02:24:07;6.57;;;5.30;;
16288;SDS011;26089;43.538;5.250;2022-10-16T02:26:40;6.43;;;5.20;;
16288;SDS011;26089;43.538;5.250;2022-10-16T02:29:12;7.23;;;5.93;;
16288;SDS011;26089;43.538;5.250;2022-10-16T02:31:45;6.43;;;5.80;;
16288;SDS011;26089;43.538;5.250;2022-10-16T02:34:16;6.67;;;5.10;;
16288;SDS011;26089;43.538;5.250;2022-10-16T02:36:47;6.50;;;5.60;;
16288;SDS011;26089;43.538;5.250;2022-10-16T02:39:16;5.90;;;5.27;;
16288;SDS011;26089;43.538;5.250;2022-10-16T02:41:44;6.57;;;5.07;;
16288;SDS011;26089;43.538;5.250;2022-10-16T02:44:11;7.23;;;5.67;;
16288;SDS011;26089;43.538;5.250;2022-10-16T02:46:38;5.97;;;5.47;;
16288;SDS011;26089;43.538;5.250;2022-10-16T02:49:06;5.60;;;4.87;;
16288;SDS011;26089;43.538;5.250;2022-10-16T02:51:33;5.77;;;5.17;;
16288;SDS011;26089;43.538;5.250;2022-10-16T02:54:01;5.70;;;5.20;;
16288;SDS011;26089;43.538;5.250;2022-10-16T02:56:28;5.60;;;4.97;;
16288;SDS011;26089;43.538;5.250;2022-10-16T02:58:56;5.83;;;4.50;;
16288;SDS011;26089;43.538;5.250;2022-10-16T03:01:23;6.10;;;4.63;;
16288;SDS011;26089;43.538;5.250;2022-10-16T03:03:50;5.27;;;4.47;;
16288;SDS011;26089;43.538;5.250;2022-10-16T03:06:18;6.47;;;4.83;;
16288;SDS011;26089;43.538;5.250;2022-10-16T03:08:46;5.47;;;4.67;;
16288;SDS011;26089;43.538;5.250;2022-10-16T03:11:13;5.17;;;4.40;;
16288;SDS011;26089;43.538;5.250;2022-10-16T03:13:40;5.40;;;5.00;;
16288;SDS011;26089;43.538;5.250;2022-10-16T03:16:07;6.27;;;4.83;;
16288;SDS011;26089;43.538;5.250;2022-10-16T03:18:34;6.27;;;4.30;;
16288;SDS011;26089;43.538;5.250;2022-10-16T03:21:01;5.20;;;4.70;;
16288;SDS011;26089;43.538;5.250;2022-10-16T03:23:29;4.87;;;4.47;;
16288;SDS011;26089;43.538;5.250;2022-10-16T03:25:56;6.77;;;5.00;;
16288;SDS011;26089;43.538;5.250;2022-10-16T03:28:23;6.33;;;4.80;;
16288;SDS011;26089;43.538;5.250;2022-10-16T03:30:50;6.50;;;4.50;;
16288;SDS011;26089;43.538;5.250;2022-10-16T03:33:17;5.87;;;5.27;;
16288;SDS011;26089;43.538;5.250;2022-10-16T03:35:50;6.13;;;4.77;;
16288;SDS011;26089;43.538;5.250;2022-10-16T03:38:18;5.13;;;4.67;;
16288;SDS011;26089;43.538;5.250;2022-10-16T03:40:46;6.80;;;4.80;;
16288;SDS011;26089;43.538;5.250;2022-10-16T03:43:13;7.70;;;5.30;;
16288;SDS011;26089;43.538;5.250;2022-10-16T03:45:40;5.00;;;4.43;;
16288;SDS011;26089;43.538;5.250;2022-10-16T03:48:07;4.70;;;4.23;;
16288;SDS011;26089;43.538;5.250;2022-10-16T03:50:34;4.50;;;4.10;;
16288;SDS011;26089;43.538;5.250;2022-10-16T03:53:02;5.40;;;4.90;;
16288;SDS011;26089;43.538;5.250;2022-10-16T03:55:29;5.07;;;4.47;;
16288;SDS011;26089;43.538;5.250;2022-10-16T03:57:58;6.23;;;5.03;;
16288;SDS011;26089;43.538;5.250;2022-10-16T04:00:25;5.07;;;4.53;;
16288;SDS011;26089;43.538;5.250;2022-10-16T04:02:52;4.77;;;4.37;;
16288;SDS011;26089;43.538;5.250;2022-10-16T04:05:19;5.70;;;4.50;;
16288;SDS011;26089;43.538;5.250;2022-10-16T04:07:46;5.30;;;4.60;;
16288;SDS011;26089;43.538;5.250;2022-10-16T04:10:13;4.93;;;4.53;;
16288;SDS011;26089;43.538;5.250;2022-10-16T04:12:40;4.90;;;4.40;;
16288;SDS011;26089;43.538;5.250;2022-10-16T04:15:09;5.53;;;4.50;;
16288;SDS011;26089;43.538;5.250;2022-10-16T04:17:36;5.23;;;4.73;;
16288;SDS011;26089;43.538;5.250;2022-10-16T04:20:03;4.80;;;4.30;;
16288;SDS011;26089;43.538;5.250;2022-10-16T04:22:31;5.30;;;4.73;;
16288;SDS011;26089;43.538;5.250;2022-10-16T04:24:58;5.30;;;4.80;;
16288;SDS011;26089;43.538;5.250;2022-10-16T04:27:25;6.30;;;4.77;;
16288;SDS011;26089;43.538;5.250;2022-10-16T04:29:53;5.63;;;4.63;;
16288;SDS011;26089;43.538;5.250;2022-10-16T04:32:21;8.70;;;5.00;;
16288;SDS011;26089;43.538;5.250;2022-10-16T04:34:48;4.57;;;4.10;;
16288;SDS011;26089;43.538;5.250;2022-10-16T04:37:15;5.80;;;4.63;;
16288;SDS011;26089;43.538;5.250;2022-10-16T04:39:43;5.93;;;4.83;;
16288;SDS011;26089;43.538;5.250;2022-10-16T04:42:10;8.70;;;4.90;;
16288;SDS011;26089;43.538;5.250;2022-10-16T04:44:37;5.97;;;5.30;;
16288;SDS011;26089;43.538;5.250;2022-10-16T04:47:04;6.73;;;5.27;;
16288;SDS011;26089;43.538;5.250;2022-10-16T04:49:32;6.50;;;5.03;;
16288;SDS011;26089;43.538;5.250;2022-10-16T04:51:59;5.63;;;4.90;;
16288;SDS011;26089;43.538;5.250;2022-10-16T04:54:26;5.63;;;5.13;;
16288;SDS011;26089;43.538;5.250;2022-10-16T04:56:53;5.87;;;5.03;;
16288;SDS011;26089;43.538;5.250;2022-10-16T04:59:20;5.97;;;4.97;;
16288;SDS011;26089;43.538;5.250;2022-10-16T05:01:48;6.03;;;5.50;;
16288;SDS011;26089;43.538;5.250;2022-10-16T05:04:15;7.23;;;5.03;;
16288;SDS011;26089;43.538;5.250;2022-10-16T05:06:43;6.73;;;4.83;;
16288;SDS011;26089;43.538;5.250;2022-10-16T05:09:10;5.37;;;4.87;;
16288;SDS011;26089;43.538;5.250;2022-10-16T05:11:37;4.97;;;4.57;;
16288;SDS011;26089;43.538;5.250;2022-10-16T05:14:04;5.07;;;4.60;;
16288;SDS011;26089;43.538;5.250;2022-10-16T05:16:31;5.77;;;4.63;;
16288;SDS011;26089;43.538;5.250;2022-10-16T05:18:58;4.10;;;3.73;;
16288;SDS011;26089;43.538;5.250;2022-10-16T05:21:25;5.87;;;3.80;;
16288;SDS011;26089;43.538;5.250;2022-10-16T05:23:54;4.60;;;3.67;;
16288;SDS011;26089;43.538;5.250;2022-10-16T05:26:21;6.43;;;3.60;;
16288;SDS011;26089;43.538;5.250;2022-10-16T05:28:49;3.67;;;3.37;;
16288;SDS011;26089;43.538;5.250;2022-10-16T05:31:16;4.23;;;3.70;;
16288;SDS011;26089;43.538;5.250;2022-10-16T05:33:43;4.70;;;3.67;;
16288;SDS011;26089;43.538;5.250;2022-10-16T05:36:10;3.97;;;3.57;;
16288;SDS011;26089;43.538;5.250;2022-10-16T05:38:38;3.47;;;3.27;;
16288;SDS011;26089;43.538;5.250;2022-10-16T05:41:06;4.70;;;4.10;;
16288;SDS011;26089;43.538;5.250;2022-10-16T05:43:33;4.33;;;3.93;;
16288;SDS011;26089;43.538;5.250;2022-10-16T05:46:01;3.83;;;3.53;;
16288;SDS011;26089;43.538;5.250;2022-10-16T05:48:30;4.47;;;4.13;;
16288;SDS011;26089;43.538;5.250;2022-10-16T05:50:58;4.83;;;4.43;;
16288;SDS011;26089;43.538;5.250;2022-10-16T05:53:27;4.70;;;4.03;;
16288;SDS011;26089;43.538;5.250;2022-10-16T05:55:55;5.40;;;4.07;;
16288;SDS011;26089;43.538;5.250;2022-10-16T05:58:23;5.60;;;4.67;;
16288;SDS011;26089;43.538;5.250;2022-10-16T06:00:55;5.63;;;4.67;;
16288;SDS011;26089;43.538;5.250;2022-10-16T06:03:22;5.40;;;4.60;;
16288;SDS011;26089;43.538;5.250;2022-10-16T06:05:50;5.03;;;4.53;;
16288;SDS011;26089;43.538;5.250;2022-10-16T06:08:17;5.67;;;4.40;;
16288;SDS011;26089;43.538;5.250;2022-10-16T06:10:46;5.10;;;4.60;;
16288;SDS011;26089;43.538;5.250;2022-10-16T06:13:13;4.77;;;4.37;;
16288;SDS011;26089;43.538;5.250;2022-10-16T06:15:42;5.77;;;4.33;;
16288;SDS011;26089;43.538;5.250;2022-10-16T06:18:10;8.87;;;5.13;;
16288;SDS011;26089;43.538;5.250;2022-10-16T06:20:37;5.73;;;5.10;;
16288;SDS011;26089;43.538;5.250;2022-10-16T06:23:04;6.17;;;5.13;;
16288;SDS011;26089;43.538;5.250;2022-10-16T06:25:31;6.43;;;4.97;;
16288;SDS011;26089;43.538;5.250;2022-10-16T06:27:58;5.90;;;5.27;;
16288;SDS011;26089;43.538;5.250;2022-10-16T06:30:25;6.43;;;5.60;;
16288;SDS011;26089;43.538;5.250;2022-10-16T06:32:54;6.87;;;5.47;;
16288;SDS011;26089;43.538;5.250;2022-10-16T06:35:21;6.37;;;5.43;;
16288;SDS011;26089;43.538;5.250;2022-10-16T06:37:48;6.30;;;5.30;;
16288;SDS011;26089;43.538;5.250;2022-10-16T06:40:16;7.13;;;5.10;;
16288;SDS011;26089;43.538;5.250;2022-10-16T06:42:43;6.07;;;5.50;;
16288;SDS011;26089;43.538;5.250;2022-10-16T06:45:10;7.20;;;5.47;;
16288;SDS011;26089;43.538;5.250;2022-10-16T06:47:37;6.90;;;5.30;;
16288;SDS011;26089;43.538;5.250;2022-10-16T06:50:06;8.87;;;5.47;;
16288;SDS011;26089;43.538;5.250;2022-10-16T06:52:34;6.40;;;5.80;;
16288;SDS011;26089;43.538;5.250;2022-10-16T06:55:01;7.10;;;5.10;;
16288;SDS011;26089;43.538;5.250;2022-10-16T06:57:28;5.70;;;5.10;;
16288;SDS011;26089;43.538;5.250;2022-10-16T06:59:55;6.37;;;5.10;;
16288;SDS011;26089;43.538;5.250;2022-10-16T07:02:22;6.80;;;5.63;;
16288;SDS011;26089;43.538;5.250;2022-10-16T07:04:49;6.50;;;5.63;;
16288;SDS011;26089;43.538;5.250;2022-10-16T07:07:18;6.90;;;5.50;;
16288;SDS011;26089;43.538;5.250;2022-10-16T07:09:45;8.53;;;5.60;;
16288;SDS011;26089;43.538;5.250;2022-10-16T07:12:12;6.97;;;5.10;;
16288;SDS011;26089;43.538;5.250;2022-10-16T07:14:39;5.90;;;5.30;;
16288;SDS011;26089;43.538;5.250;2022-10-16T07:17:06;5.73;;;5.20;;
16288;SDS011;26089;43.538;5.250;2022-10-16T07:19:33;5.97;;;5.20;;
16288;SDS011;26089;43.538;5.250;2022-10-16T07:22:00;6.60;;;5.67;;
16288;SDS011;26089;43.538;5.250;2022-10-16T07:24:29;6.17;;;5.17;;
16288;SDS011;26089;43.538;5.250;2022-10-16T07:26:56;5.73;;;5.20;;
16288;SDS011;26089;43.538;5.250;2022-10-16T07:29:23;6.20;;;5.60;;
16288;SDS011;26089;43.538;5.250;2022-10-16T07:31:50;6.67;;;5.30;;
16288;SDS011;26089;43.538;5.250;2022-10-16T07:34:18;7.27;;;5.50;;
16288;SDS011;26089;43.538;5.250;2022-10-16T07:36:47;6.20;;;5.17;;
16288;SDS011;26089;43.538;5.250;2022-10-16T07:39:14;7.17;;;5.47;;
16288;SDS011;26089;43.538;5.250;2022-10-16T07:41:43;6.00;;;5.30;;
16288;SDS011;26089;43.538;5.250;2022-10-16T07:44:10;6.27;;;5.20;;
16288;SDS011;26089;43.538;5.250;2022-10-16T07:46:37;8.20;;;5.83;;
16288;SDS011;26089;43.538;5.250;2022-10-16T07:49:04;7.43;;;6.17;;
16288;SDS011;26089;43.538;5.250;2022-10-16T07:51:31;7.30;;;6.33;;
16288;SDS011;26089;43.538;5.250;2022-10-16T07:53:58;6.70;;;5.73;;
16288;SDS011;26089;43.538;5.250;2022-10-16T07:56:25;8.37;;;5.87;;
16288;SDS011;26089;43.538;5.250;2022-10-16T07:58:54;6.93;;;5.47;;
16288;SDS011;26089;43.538;5.250;2022-10-16T08:01:21;9.20;;;5.77;;
16288;SDS011;26089;43.538;5.250;2022-10-16T08:03:49;6.20;;;5.60;;
16288;SDS011;26089;43.538;5.250;2022-10-16T08:06:18;8.67;;;6.70;;
16288;SDS011;26089;43.538;5.250;2022-10-16T08:08:46;6.63;;;6.00;;
16288;SDS011;26089;43.538;5.250;2022-10-16T08:11:14;7.17;;;5.83;;
16288;SDS011;26089;43.538;5.250;2022-10-16T08:13:41;6.80;;;5.73;;
16288;SDS011;26089;43.538;5.250;2022-10-16T08:16:10;7.70;;;5.73;;
16288;SDS011;26089;43.538;5.250;2022-10-16T08:18:37;9.30;;;6.60;;
16288;SDS011;26089;43.538;5.250;2022-10-16T08:21:06;9.23;;;6.80;;
16288;SDS011;26089;43.538;5.250;2022-10-16T08:23:38;9.50;;;7.27;;
16288;SDS011;26089;43.538;5.250;2022-10-16T08:26:05;9.50;;;6.40;;
16288;SDS011;26089;43.538;5.250;2022-10-16T08:28:33;6.87;;;5.80;;
16288;SDS011;26089;43.538;5.250;2022-10-16T08:31:04;10.43;;;5.70;;
16288;SDS011;26089;43.538;5.250;2022-10-16T08:33:34;6.93;;;5.40;;
16288;SDS011;26089;43.538;5.250;2022-10-16T08:36:02;6.57;;;5.03;;
16288;SDS011;26089;43.538;5.250;2022-10-16T08:38:30;8.73;;;5.13;;
16288;SDS011;26089;43.538;5.250;2022-10-16T08:41:07;8.27;;;4.97;;
16288;SDS011;26089;43.538;5.250;2022-10-16T08:43:52;11.97;;;5.13;;
16288;SDS011;26089;43.538;5.250;2022-10-16T08:46:34;5.07;;;4.57;;
16288;SDS011;26089;43.538;5.250;2022-10-16T08:49:12;7.07;;;5.20;;
16288;SDS011;26089;43.538;5.250;2022-10-16T08:51:40;7.10;;;5.70;;
16288;SDS011;26089;43.538;5.250;2022-10-16T08:54:11;7.37;;;6.13;;
16288;SDS011;26089;43.538;5.250;2022-10-16T08:56:49;6.37;;;5.77;;
16288;SDS011;26089;43.538;5.250;2022-10-16T08:59:16;6.30;;;5.40;;
16288;SDS011;26089;43.538;5.250;2022-10-16T09:01:45;5.23;;;4.63;;
16288;SDS011;26089;43.538;5.250;2022-10-16T09:07:15;8.47;;;5.63;;
16288;SDS011;26089;43.538;5.250;2022-10-16T09:09:53;7.57;;;5.10;;
16288;SDS011;26089;43.538;5.250;2022-10-16T09:12:36;5.50;;;5.00;;
16288;SDS011;26089;43.538;5.250;2022-10-16T09:15:12;5.77;;;5.10;;
16288;SDS011;26089;43.538;5.250;2022-10-16T09:17:50;5.10;;;4.63;;
16288;SDS011;26089;43.538;5.250;2022-10-16T09:20:26;5.13;;;4.67;;
16288;SDS011;26089;43.538;5.250;2022-10-16T09:23:00;5.10;;;4.60;;
16288;SDS011;26089;43.538;5.250;2022-10-16T09:25:38;6.03;;;5.13;;
16288;SDS011;26089;43.538;5.250;2022-10-16T09:28:07;7.50;;;5.23;;
16288;SDS011;26089;43.538;5.250;2022-10-16T09:30:35;5.40;;;4.90;;
16288;SDS011;26089;43.538;5.250;2022-10-16T09:33:04;5.27;;;4.70;;
16288;SDS011;26089;43.538;5.250;2022-10-16T09:35:35;5.30;;;4.70;;
16288;SDS011;26089;43.538;5.250;2022-10-16T09:38:04;4.90;;;4.47;;
16288;SDS011;26089;43.538;5.250;2022-10-16T09:40:32;5.07;;;4.53;;
16288;SDS011;26089;43.538;5.250;2022-10-16T09:43:02;4.93;;;4.53;;
16288;SDS011;26089;43.538;5.250;2022-10-16T09:45:53;6.67;;;4.57;;
16288;SDS011;26089;43.538;5.250;2022-10-16T09:48:21;6.40;;;4.53;;
16288;SDS011;26089;43.538;5.250;2022-10-16T09:50:56;5.63;;;4.27;;
16288;SDS011;26089;43.538;5.250;2022-10-16T09:53:25;5.97;;;4.53;;
16288;SDS011;26089;43.538;5.250;2022-10-16T09:56:04;5.60;;;4.37;;
16288;SDS011;26089;43.538;5.250;2022-10-16T09:58:31;7.90;;;4.30;;
16288;SDS011;26089;43.538;5.250;2022-10-16T10:00:59;4.57;;;4.20;;
16288;SDS011;26089;43.538;5.250;2022-10-16T10:03:33;6.17;;;4.27;;
16288;SDS011;26089;43.538;5.250;2022-10-16T10:06:13;7.40;;;4.30;;
16288;SDS011;26089;43.538;5.250;2022-10-16T10:08:59;6.77;;;4.50;;
16288;SDS011;26089;43.538;5.250;2022-10-16T10:11:44;4.40;;;4.00;;
16288;SDS011;26089;43.538;5.250;2022-10-16T10:14:24;4.80;;;3.80;;
16288;SDS011;26089;43.538;5.250;2022-10-16T10:17:06;5.43;;;4.38;;
16288;SDS011;26089;43.538;5.250;2022-10-16T10:19:40;6.23;;;4.40;;
16288;SDS011;26089;43.538;5.250;2022-10-16T10:22:17;5.03;;;4.28;;
16288;SDS011;26089;43.538;5.250;2022-10-16T10:24:56;4.80;;;4.05;;
16288;SDS011;26089;43.538;5.250;2022-10-16T10:27:29;4.63;;;4.18;;
16288;SDS011;26089;43.538;5.250;2022-10-16T10:30:05;4.72;;;4.13;;
16288;SDS011;26089;43.538;5.250;2022-10-16T10:32:41;4.57;;;4.13;;
16288;SDS011;26089;43.538;5.250;2022-10-16T10:35:15;4.33;;;3.93;;
16288;SDS011;26089;43.538;5.250;2022-10-16T10:37:54;5.77;;;4.30;;
16288;SDS011;26089;43.538;5.250;2022-10-16T10:40:34;5.57;;;4.50;;
16288;SDS011;26089;43.538;5.250;2022-10-16T10:43:12;4.53;;;4.13;;
16288;SDS011;26089;43.538;5.250;2022-10-16T10:45:47;4.97;;;4.03;;
16288;SDS011;26089;43.538;5.250;2022-10-16T10:48:23;4.20;;;3.80;;
16288;SDS011;26089;43.538;5.250;2022-10-16T10:51:00;5.17;;;4.53;;
16288;SDS011;26089;43.538;5.250;2022-10-16T10:53:38;7.10;;;4.50;;
16288;SDS011;26089;43.538;5.250;2022-10-16T10:56:18;4.70;;;4.30;;
16288;SDS011;26089;43.538;5.250;2022-10-16T10:59:08;5.53;;;4.77;;
16288;SDS011;26089;43.538;5.250;2022-10-16T11:02:10;6.37;;;4.40;;
16288;SDS011;26089;43.538;5.250;2022-10-16T11:08:03;6.88;;;3.88;;
16288;SDS011;26089;43.538;5.250;2022-10-16T11:10:38;8.55;;;4.25;;
16288;SDS011;26089;43.538;5.250;2022-10-16T11:13:15;4.65;;;4.10;;
16288;SDS011;26089;43.538;5.250;2022-10-16T11:15:50;4.60;;;4.20;;
16288;SDS011;26089;43.538;5.250;2022-10-16T11:18:21;5.50;;;3.97;;
16288;SDS011;26089;43.538;5.250;2022-10-16T11:20:53;3.83;;;3.40;;
16288;SDS011;26089;43.538;5.250;2022-10-16T11:23:24;3.72;;;3.05;;
16288;SDS011;26089;43.538;5.250;2022-10-16T11:25:56;4.73;;;3.30;;
16288;SDS011;26089;43.538;5.250;2022-10-16T11:28:27;4.63;;;3.10;;
16288;SDS011;26089;43.538;5.250;2022-10-16T11:31:00;3.63;;;3.33;;
16288;SDS011;26089;43.538;5.250;2022-10-16T11:33:32;3.38;;;2.90;;
16288;SDS011;26089;43.538;5.250;2022-10-16T11:36:06;5.00;;;2.65;;
16288;SDS011;26089;43.538;5.250;2022-10-16T11:38:41;3.50;;;3.03;;
16288;SDS011;26089;43.538;5.250;2022-10-16T11:41:17;5.68;;;3.20;;
16288;SDS011;26089;43.538;5.250;2022-10-16T11:43:49;3.53;;;2.90;;
16288;SDS011;26089;43.538;5.250;2022-10-16T11:46:24;3.53;;;3.25;;
16288;SDS011;26089;43.538;5.250;2022-10-16T11:48:54;3.72;;;3.05;;
16288;SDS011;26089;43.538;5.250;2022-10-16T11:51:29;4.30;;;3.08;;
16288;SDS011;26089;43.538;5.250;2022-10-16T11:54:02;4.43;;;3.38;;
16288;SDS011;26089;43.538;5.250;2022-10-16T11:56:37;3.42;;;3.13;;
16288;SDS011;26089;43.538;5.250;2022-10-16T11:59:06;4.82;;;2.60;;
16288;SDS011;26089;43.538;5.250;2022-10-16T12:01:42;4.78;;;3.40;;
16288;SDS011;26089;43.538;5.250;2022-10-16T12:04:18;3.83;;;2.63;;
16288;SDS011;26089;43.538;5.250;2022-10-16T12:06:53;3.55;;;3.25;;
16288;SDS011;26089;43.538;5.250;2022-10-16T12:09:25;5.57;;;2.60;;
16288;SDS011;26089;43.538;5.250;2022-10-16T12:11:55;3.72;;;2.90;;
16288;SDS011;26089;43.538;5.250;2022-10-16T12:14:33;3.65;;;2.88;;
16288;SDS011;26089;43.538;5.250;2022-10-16T12:17:03;3.72;;;2.95;;
16288;SDS011;26089;43.538;5.250;2022-10-16T12:19:57;4.68;;;2.88;;
16288;SDS011;26089;43.538;5.250;2022-10-16T12:22:26;5.05;;;2.88;;
16288;SDS011;26089;43.538;5.250;2022-10-16T12:24:55;3.88;;;2.90;;
16288;SDS011;26089;43.538;5.250;2022-10-16T12:27:25;5.43;;;3.00;;
16288;SDS011;26089;43.538;5.250;2022-10-16T12:29:56;3.72;;;2.60;;
16288;SDS011;26089;43.538;5.250;2022-10-16T12:32:27;2.97;;;2.70;;
16288;SDS011;26089;43.538;5.250;2022-10-16T12:34:57;3.90;;;2.90;;
16288;SDS011;26089;43.538;5.250;2022-10-16T12:37:25;7.57;;;2.70;;
16288;SDS011;26089;43.538;5.250;2022-10-16T12:39:55;4.63;;;3.03;;
16288;SDS011;26089;43.538;5.250;2022-10-16T12:42:32;3.35;;;3.13;;
16288;SDS011;26089;43.538;5.250;2022-10-16T12:45:00;2.88;;;2.58;;
16288;SDS011;26089;43.538;5.250;2022-10-16T12:47:47;3.58;;;2.40;;
16288;SDS011;26089;43.538;5.250;2022-10-16T12:50:23;3.38;;;2.67;;
16288;SDS011;26089;43.538;5.250;2022-10-16T12:52:52;4.43;;;2.40;;
16288;SDS011;26089;43.538;5.250;2022-10-16T12:55:19;5.25;;;2.35;;
16288;SDS011;26089;43.538;5.250;2022-10-16T12:57:54;3.35;;;2.60;;
16288;SDS011;26089;43.538;5.250;2022-10-16T13:00:36;5.30;;;2.45;;
16288;SDS011;26089;43.538;5.250;2022-10-16T13:06:07;3.35;;;2.65;;
16288;SDS011;26089;43.538;5.250;2022-10-16T13:08:50;3.60;;;2.60;;
16288;SDS011;26089;43.538;5.250;2022-10-16T13:11:35;4.47;;;2.50;;
16288;SDS011;26089;43.538;5.250;2022-10-16T13:14:32;3.15;;;2.42;;
16288;SDS011;26089;43.538;5.250;2022-10-16T13:17:15;3.25;;;2.47;;
16288;SDS011;26089;43.538;5.250;2022-10-16T13:19:53;2.75;;;2.50;;
16288;SDS011;26089;43.538;5.250;2022-10-16T13:22:29;3.92;;;2.30;;
16288;SDS011;26089;43.538;5.250;2022-10-16T13:25:08;4.00;;;2.90;;
16288;SDS011;26089;43.538;5.250;2022-10-16T13:27:46;3.53;;;2.50;;
16288;SDS011;26089;43.538;5.250;2022-10-16T13:30:21;4.28;;;2.65;;
16288;SDS011;26089;43.538;5.250;2022-10-16T13:32:54;3.72;;;2.72;;
16288;SDS011;26089;43.538;5.250;2022-10-16T13:35:27;5.57;;;2.50;;
16288;SDS011;26089;43.538;5.250;2022-10-16T13:38:05;2.78;;;2.55;;
16288;SDS011;26089;43.538;5.250;2022-10-16T13:40:48;2.35;;;2.15;;
16288;SDS011;26089;43.538;5.250;2022-10-16T13:43:17;4.72;;;2.63;;
16288;SDS011;26089;43.538;5.250;2022-10-16T13:45:53;3.55;;;2.38;;
16288;SDS011;26089;43.538;5.250;2022-10-16T13:48:25;4.75;;;2.72;;
16288;SDS011;26089;43.538;5.250;2022-10-16T13:50:59;3.33;;;2.40;;
16288;SDS011;26089;43.538;5.250;2022-10-16T13:53:27;2.47;;;2.28;;
16288;SDS011;26089;43.538;5.250;2022-10-16T13:55:56;2.50;;;2.30;;
16288;SDS011;26089;43.538;5.250;2022-10-16T13:58:25;2.72;;;2.30;;
16288;SDS011;26089;43.538;5.250;2022-10-16T14:00:54;3.85;;;2.70;;
16288;SDS011;26089;43.538;5.250;2022-10-16T14:03:23;2.80;;;2.60;;
16288;SDS011;26089;43.538;5.250;2022-10-16T14:05:51;3.63;;;2.47;;
16288;SDS011;26089;43.538;5.250;2022-10-16T14:08:20;3.58;;;2.67;;
16288;SDS011;26089;43.538;5.250;2022-10-16T14:10:48;3.13;;;2.55;;
16288;SDS011;26089;43.538;5.250;2022-10-16T14:13:17;4.50;;;2.58;;
16288;SDS011;26089;43.538;5.250;2022-10-16T14:15:49;4.63;;;3.05;;
16288;SDS011;26089;43.538;5.250;2022-10-16T14:18:20;5.75;;;2.78;;
16288;SDS011;26089;43.538;5.250;2022-10-16T14:20:49;3.33;;;2.70;;
16288;SDS011;26089;43.538;5.250;2022-10-16T14:23:19;4.47;;;2.42;;
16288;SDS011;26089;43.538;5.250;2022-10-16T14:25:49;4.10;;;2.55;;
16288;SDS011;26089;43.538;5.250;2022-10-16T14:28:16;4.50;;;2.90;;
16288;SDS011;26089;43.538;5.250;2022-10-16T14:30:49;3.40;;;2.40;;
16288;SDS011;26089;43.538;5.250;2022-10-16T14:33:23;2.28;;;2.08;;
16288;SDS011;26089;43.538;5.250;2022-10-16T14:35:59;13.38;;;9.95;;
16288;SDS011;26089;43.538;5.250;2022-10-16T14:38:31;6.28;;;4.50;;
16288;SDS011;26089;43.538;5.250;2022-10-16T14:40:59;3.80;;;2.70;;
16288;SDS011;26089;43.538;5.250;2022-10-16T14:43:29;4.50;;;2.40;;
16288;SDS011;26089;43.538;5.250;2022-10-16T14:45:59;3.70;;;2.45;;
16288;SDS011;26089;43.538;5.250;2022-10-16T14:48:30;3.40;;;2.65;;
16288;SDS011;26089;43.538;5.250;2022-10-16T14:50:58;4.65;;;2.63;;
16288;SDS011;26089;43.538;5.250;2022-10-16T14:53:25;3.15;;;2.85;;
16288;SDS011;26089;43.538;5.250;2022-10-16T14:55:52;2.80;;;2.50;;
16288;SDS011;26089;43.538;5.250;2022-10-16T14:58:20;3.95;;;2.90;;
16288;SDS011;26089;43.538;5.250;2022-10-16T15:00:48;4.72;;;2.72;;
16288;SDS011;26089;43.538;5.250;2022-10-16T15:03:15;4.35;;;2.60;;
16288;SDS011;26089;43.538;5.250;2022-10-16T15:05:44;5.95;;;2.70;;
16288;SDS011;26089;43.538;5.250;2022-10-16T15:08:11;4.10;;;2.77;;
16288;SDS011;26089;43.538;5.250;2022-10-16T15:10:38;4.90;;;3.13;;
16288;SDS011;26089;43.538;5.250;2022-10-16T15:13:08;7.13;;;2.65;;
16288;SDS011;26089;43.538;5.250;2022-10-16T15:15:39;4.07;;;2.63;;
16288;SDS011;26089;43.538;5.250;2022-10-16T15:18:09;4.20;;;2.83;;
16288;SDS011;26089;43.538;5.250;2022-10-16T15:20:36;5.10;;;2.87;;